createdAt,value
2022-10-25T00:00:18.680Z,0.00
2022-10-25T00:01:18.798Z,0.00
2022-10-25T00:02:18.746Z,0.00
2022-10-25T00:03:19.664Z,0.00
2022-10-25T00:04:18.701Z,0.00
2022-10-25T00:05:18.648Z,0.00
2022-10-25T00:06:18.635Z,0.00
2022-10-25T00:07:18.622Z,0.00
2022-10-25T00:08:18.616Z,0.00
2022-10-25T00:09:18.639Z,0.00
2022-10-25T00:10:21.102Z,0.00
2022-10-25T00:11:19.593Z,0.00
2022-10-25T00:12:18.589Z,0.00
2022-10-25T00:13:18.584Z,0.00
2022-10-25T00:14:18.628Z,0.00
2022-10-25T00:15:18.560Z,0.00
2022-10-25T00:16:18.550Z,0.00
2022-10-25T00:17:18.540Z,0.00
2022-10-25T00:18:18.542Z,0.00
2022-10-25T00:19:18.580Z,0.00
2022-10-25T00:20:18.513Z,0.00
2022-10-25T00:21:18.508Z,0.00
2022-10-25T00:22:18.503Z,0.00
2022-10-25T00:23:18.488Z,0.00
2022-10-25T00:24:18.483Z,0.00
2022-10-25T00:25:18.501Z,0.00
2022-10-25T00:26:18.464Z,0.00
2022-10-25T00:27:18.452Z,0.00
2022-10-25T00:28:18.444Z,0.00
2022-10-25T00:29:18.498Z,0.00
2022-10-25T00:30:18.457Z,0.00
2022-10-25T00:31:18.421Z,0.00
2022-10-25T00:32:18.413Z,0.00
2022-10-25T00:33:18.407Z,0.00
2022-10-25T00:34:18.395Z,0.00
2022-10-25T00:35:18.414Z,0.00
2022-10-25T00:36:18.383Z,0.00
2022-10-25T00:37:18.373Z,0.00
2022-10-25T00:38:18.362Z,0.00
2022-10-25T00:39:18.355Z,0.00
2022-10-25T00:40:18.376Z,0.00
2022-10-25T00:41:18.338Z,0.00
2022-10-25T00:42:18.333Z,0.00
2022-10-25T00:43:18.325Z,0.00
2022-10-25T00:44:18.314Z,0.00
2022-10-25T00:45:18.329Z,0.00
2022-10-25T00:46:18.299Z,0.00
2022-10-25T00:47:18.290Z,0.00
2022-10-25T00:48:18.282Z,0.00
2022-10-25T00:49:18.271Z,0.00
2022-10-25T00:50:18.284Z,0.00
2022-10-25T00:51:18.253Z,0.00
2022-10-25T00:52:18.235Z,0.00
2022-10-25T00:53:18.231Z,0.00
2022-10-25T00:54:18.290Z,0.00
2022-10-25T00:55:18.245Z,0.00
2022-10-25T00:56:18.209Z,0.00
2022-10-25T00:57:18.193Z,0.00
2022-10-25T00:58:18.193Z,0.00
2022-10-25T00:59:18.189Z,0.00
2022-10-25T01:00:18.214Z,0.00
2022-10-25T01:01:18.261Z,0.00
2022-10-25T01:02:18.232Z,0.00
2022-10-25T01:03:18.146Z,0.00
2022-10-25T01:04:18.142Z,0.00
2022-10-25T01:05:18.161Z,0.00
2022-10-25T01:06:18.145Z,0.00
2022-10-25T01:07:18.111Z,0.00
2022-10-25T01:08:18.106Z,0.00
2022-10-25T01:09:18.104Z,0.00
2022-10-25T01:10:18.118Z,0.00
2022-10-25T01:12:18.070Z,0.00
2022-10-25T01:13:18.064Z,0.00
2022-10-25T01:14:18.061Z,0.00
2022-10-25T01:15:18.079Z,0.00
2022-10-25T01:16:18.031Z,0.00
2022-10-25T01:17:18.028Z,0.00
2022-10-25T01:18:18.020Z,0.00
2022-10-25T01:19:18.008Z,0.00
2022-10-25T01:20:18.048Z,0.00
2022-10-25T01:21:17.989Z,0.00
2022-10-25T01:22:17.988Z,0.00
2022-10-25T01:23:17.975Z,0.00
2022-10-25T01:24:17.969Z,0.00
2022-10-25T01:25:17.989Z,0.00
2022-10-25T01:26:17.948Z,0.00
2022-10-25T01:27:17.940Z,0.00
2022-10-25T01:28:17.935Z,0.00
2022-10-25T01:29:17.921Z,0.00
2022-10-25T01:30:17.950Z,0.00
2022-10-25T01:31:17.910Z,0.00
2022-10-25T01:32:17.906Z,0.00
2022-10-25T01:33:17.894Z,0.00
2022-10-25T01:34:17.880Z,0.00
2022-10-25T01:35:17.905Z,0.00
2022-10-25T01:36:17.890Z,0.00
2022-10-25T01:37:17.861Z,0.00
2022-10-25T01:38:17.854Z,0.00
2022-10-25T01:39:17.843Z,0.00
2022-10-25T01:40:17.865Z,0.00
2022-10-25T01:41:17.827Z,0.00
2022-10-25T01:42:17.817Z,0.00
2022-10-25T01:43:17.806Z,0.00
2022-10-25T01:44:17.803Z,0.00
2022-10-25T01:45:17.819Z,0.00
2022-10-25T01:46:17.777Z,0.00
2022-10-25T01:47:17.783Z,0.00
2022-10-25T01:48:17.766Z,0.00
2022-10-25T01:49:17.756Z,0.00
2022-10-25T01:50:17.777Z,0.00
2022-10-25T01:51:17.737Z,0.00
2022-10-25T01:52:17.729Z,0.00
2022-10-25T01:53:17.725Z,0.00
2022-10-25T01:54:17.714Z,0.00
2022-10-25T01:55:17.742Z,0.00
2022-10-25T01:56:17.699Z,0.00
2022-10-25T01:57:36.685Z,0.00
2022-10-25T01:58:18.685Z,0.00
2022-10-25T01:59:17.677Z,0.00
2022-10-25T02:00:17.661Z,0.00
2022-10-25T02:01:17.882Z,0.00
2022-10-25T02:02:17.652Z,0.00
2022-10-25T02:03:17.634Z,0.00
2022-10-25T02:04:17.632Z,0.00
2022-10-25T02:05:17.626Z,0.00
2022-10-25T02:06:17.639Z,0.00
2022-10-25T02:07:17.609Z,0.00
2022-10-25T02:08:17.600Z,0.00
2022-10-25T02:09:17.593Z,0.00
2022-10-25T02:10:17.586Z,0.00
2022-10-25T02:11:17.606Z,0.00
2022-10-25T02:12:17.569Z,0.00
2022-10-25T02:13:17.555Z,0.00
2022-10-25T02:14:17.542Z,0.00
2022-10-25T02:15:17.542Z,0.00
2022-10-25T02:16:17.558Z,0.00
2022-10-25T02:17:17.527Z,0.00
2022-10-25T02:18:17.563Z,0.00
2022-10-25T02:19:17.503Z,0.00
2022-10-25T02:20:17.496Z,0.00
2022-10-25T02:21:17.522Z,0.00
2022-10-25T02:22:17.485Z,0.00
2022-10-25T02:23:17.466Z,0.00
2022-10-25T02:24:17.464Z,0.00
2022-10-25T02:25:17.472Z,0.00
2022-10-25T02:26:17.478Z,0.00
2022-10-25T02:27:17.431Z,0.00
2022-10-25T02:28:18.431Z,0.00
2022-10-25T02:29:17.433Z,0.00
2022-10-25T02:30:17.422Z,0.00
2022-10-25T02:31:17.432Z,0.00
2022-10-25T02:32:17.402Z,0.00
2022-10-25T02:33:17.400Z,0.00
2022-10-25T02:34:17.380Z,0.00
2022-10-25T02:35:17.383Z,0.00
2022-10-25T02:36:17.398Z,0.00
2022-10-25T02:37:17.353Z,0.00
2022-10-25T02:38:17.349Z,0.00
2022-10-25T02:39:17.335Z,0.00
2022-10-25T02:40:17.324Z,0.00
2022-10-25T02:41:17.349Z,0.00
2022-10-25T02:42:17.311Z,0.00
2022-10-25T02:43:17.319Z,0.00
2022-10-25T02:44:17.294Z,0.00
2022-10-25T02:45:17.297Z,0.00
2022-10-25T02:46:17.311Z,0.00
2022-10-25T02:47:17.272Z,0.00
2022-10-25T02:48:17.258Z,0.00
2022-10-25T02:49:17.256Z,0.00
2022-10-25T02:50:17.241Z,0.00
2022-10-25T02:51:17.261Z,0.00
2022-10-25T02:52:17.229Z,0.00
2022-10-25T02:53:17.215Z,0.00
2022-10-25T02:54:17.216Z,0.00
2022-10-25T02:55:17.203Z,0.00
2022-10-25T02:56:17.227Z,0.00
2022-10-25T02:57:17.184Z,0.00
2022-10-25T02:58:17.185Z,0.00
2022-10-25T02:59:17.175Z,0.00
2022-10-25T03:00:17.171Z,0.00
2022-10-25T03:01:17.296Z,0.00
2022-10-25T03:02:17.142Z,0.00
2022-10-25T03:03:17.134Z,0.00
2022-10-25T03:04:17.130Z,0.00
2022-10-25T03:05:17.118Z,0.00
2022-10-25T03:06:17.136Z,0.00
2022-10-25T03:07:17.115Z,0.00
2022-10-25T03:08:18.142Z,0.00
2022-10-25T03:09:17.082Z,0.00
2022-10-25T03:10:17.077Z,0.00
2022-10-25T03:11:17.089Z,0.00
2022-10-25T03:12:17.064Z,0.00
2022-10-25T03:13:17.049Z,0.00
2022-10-25T03:14:17.044Z,0.00
2022-10-25T03:15:17.035Z,0.00
2022-10-25T03:16:17.048Z,0.00
2022-10-25T03:17:17.016Z,0.00
2022-10-25T03:18:17.005Z,0.00
2022-10-25T03:19:17.005Z,0.00
2022-10-25T03:20:16.985Z,0.00
2022-10-25T03:21:17.008Z,0.00
2022-10-25T03:22:16.973Z,0.00
2022-10-25T03:23:16.957Z,0.00
2022-10-25T03:24:16.951Z,0.00
2022-10-25T03:25:16.943Z,0.00
2022-10-25T03:26:16.975Z,0.00
2022-10-25T03:27:16.934Z,0.00
2022-10-25T03:28:16.922Z,0.00
2022-10-25T03:29:16.918Z,0.00
2022-10-25T03:30:16.904Z,0.00
2022-10-25T03:31:16.902Z,0.00
2022-10-25T03:32:16.917Z,0.00
2022-10-25T03:33:16.913Z,0.00
2022-10-25T03:34:16.870Z,0.00
2022-10-25T03:35:16.861Z,0.00
2022-10-25T03:36:16.856Z,0.00
2022-10-25T03:37:16.871Z,0.00
2022-10-25T03:38:16.835Z,0.00
2022-10-25T03:39:16.836Z,0.00
2022-10-25T03:40:16.824Z,0.00
2022-10-25T03:41:16.829Z,0.00
2022-10-25T03:42:16.845Z,0.00
2022-10-25T03:43:16.878Z,0.00
2022-10-25T03:44:16.792Z,0.00
2022-10-25T03:45:16.784Z,0.00
2022-10-25T03:46:16.773Z,0.00
2022-10-25T03:47:16.793Z,0.00
2022-10-25T03:48:16.756Z,0.00
2022-10-25T03:49:16.747Z,0.00
2022-10-25T03:50:16.739Z,0.00
2022-10-25T03:51:16.736Z,0.00
2022-10-25T03:52:16.754Z,0.00
2022-10-25T03:53:16.715Z,0.00
2022-10-25T03:54:16.703Z,0.00
2022-10-25T03:55:16.695Z,0.00
2022-10-25T03:56:16.683Z,0.00
2022-10-25T03:57:16.708Z,0.00
2022-10-25T03:58:16.679Z,0.00
2022-10-25T03:59:16.663Z,0.00
2022-10-25T04:00:16.656Z,0.00
2022-10-25T04:01:16.831Z,0.00
2022-10-25T04:02:16.670Z,0.00
2022-10-25T04:03:16.633Z,0.00
2022-10-25T04:04:16.620Z,0.00
2022-10-25T04:05:16.611Z,0.00
2022-10-25T04:06:16.604Z,0.00
2022-10-25T04:07:16.626Z,0.00
2022-10-25T04:08:16.582Z,0.00
2022-10-25T04:09:16.585Z,0.00
2022-10-25T04:10:16.570Z,0.00
2022-10-25T04:11:16.559Z,0.00
2022-10-25T04:12:16.582Z,0.00
2022-10-25T04:13:16.543Z,0.00
2022-10-25T04:14:16.538Z,0.00
2022-10-25T04:15:16.532Z,0.00
2022-10-25T04:16:18.365Z,0.00
2022-10-25T04:17:16.533Z,0.00
2022-10-25T04:18:16.504Z,0.00
2022-10-25T04:19:16.493Z,0.00
2022-10-25T04:20:16.484Z,0.00
2022-10-25T04:21:16.474Z,0.00
2022-10-25T04:22:16.499Z,0.00
2022-10-25T04:23:16.450Z,0.00
2022-10-25T04:24:16.449Z,0.00
2022-10-25T04:25:16.438Z,0.00
2022-10-25T04:26:16.428Z,0.00
2022-10-25T04:27:16.456Z,0.00
2022-10-25T04:28:16.425Z,0.00
2022-10-25T04:29:16.403Z,0.00
2022-10-25T04:30:16.400Z,0.00
2022-10-25T04:31:16.386Z,0.00
2022-10-25T04:32:16.486Z,0.00
2022-10-25T04:33:16.369Z,0.00
2022-10-25T04:34:17.362Z,0.00
2022-10-25T04:35:16.356Z,0.00
2022-10-25T04:36:16.343Z,0.00
2022-10-25T04:37:16.373Z,0.00
2022-10-25T04:38:16.327Z,0.00
2022-10-25T04:39:17.319Z,0.00
2022-10-25T04:40:18.210Z,0.00
2022-10-25T04:41:16.302Z,0.00
2022-10-25T04:42:16.320Z,0.00
2022-10-25T04:43:16.344Z,0.00
2022-10-25T04:44:16.274Z,0.00
2022-10-25T04:45:16.264Z,0.00
2022-10-25T04:46:16.257Z,0.00
2022-10-25T04:47:16.283Z,0.00
2022-10-25T04:48:16.238Z,0.00
2022-10-25T04:49:16.231Z,0.00
2022-10-25T04:50:16.223Z,0.00
2022-10-25T04:51:16.217Z,0.00
2022-10-25T04:52:16.237Z,0.00
2022-10-25T04:53:16.198Z,0.00
2022-10-25T04:54:16.191Z,0.00
2022-10-25T04:55:16.180Z,0.00
2022-10-25T04:56:16.174Z,0.00
2022-10-25T04:57:16.195Z,0.00
2022-10-25T04:58:16.153Z,0.00
2022-10-25T04:59:16.151Z,0.00
2022-10-25T05:00:16.136Z,0.00
2022-10-25T05:01:16.162Z,0.00
2022-10-25T05:02:16.122Z,0.00
2022-10-25T05:03:16.168Z,0.00
2022-10-25T05:04:16.100Z,0.00
2022-10-25T05:05:16.096Z,0.00
2022-10-25T05:06:16.096Z,0.00
2022-10-25T05:07:16.079Z,0.00
2022-10-25T05:08:16.105Z,0.00
2022-10-25T05:09:16.068Z,0.00
2022-10-25T05:10:16.053Z,0.00
2022-10-25T05:11:16.057Z,0.00
2022-10-25T05:12:16.035Z,0.00
2022-10-25T05:13:16.057Z,0.00
2022-10-25T05:14:16.023Z,0.00
2022-10-25T05:15:16.008Z,0.00
2022-10-25T05:16:16.004Z,0.00
2022-10-25T05:17:15.997Z,0.00
2022-10-25T05:18:16.026Z,0.00
2022-10-25T05:19:15.983Z,0.00
2022-10-25T05:20:15.974Z,0.00
2022-10-25T05:21:16.019Z,0.00
2022-10-25T05:22:15.958Z,0.00
2022-10-25T05:23:15.968Z,0.00
2022-10-25T05:24:15.937Z,0.00
2022-10-25T05:25:15.928Z,0.00
2022-10-25T05:26:15.918Z,0.00
2022-10-25T05:27:15.914Z,4.00
2022-10-25T05:28:15.935Z,0.00
2022-10-25T05:29:15.897Z,4.00
2022-10-25T05:30:15.886Z,4.00
2022-10-25T05:31:16.015Z,4.00
2022-10-25T05:32:15.862Z,4.00
2022-10-25T05:33:15.888Z,8.00
2022-10-25T05:34:15.846Z,8.00
2022-10-25T05:35:15.840Z,8.00
2022-10-25T05:36:15.829Z,12.00
2022-10-25T05:37:15.831Z,16.00
2022-10-25T05:38:15.857Z,16.00
2022-10-25T05:39:15.808Z,20.00
2022-10-25T05:40:15.810Z,20.00
2022-10-25T05:41:15.799Z,20.00
2022-10-25T05:42:15.780Z,20.00
2022-10-25T05:43:15.808Z,20.00
2022-10-25T05:44:15.771Z,20.00
2022-10-25T05:45:15.762Z,20.00
2022-10-25T05:46:15.751Z,24.00
2022-10-25T05:47:15.742Z,32.00
2022-10-25T05:48:15.732Z,48.00
2022-10-25T05:49:15.761Z,60.00
2022-10-25T05:50:15.722Z,80.00
2022-10-25T05:51:28.955Z,96.00
2022-10-25T05:52:17.703Z,108.00
2022-10-25T05:53:15.690Z,120.00
2022-10-25T05:54:15.712Z,136.00
2022-10-25T05:55:15.676Z,164.00
2022-10-25T05:56:15.673Z,184.00
2022-10-25T05:57:15.663Z,216.00
2022-10-25T05:58:15.647Z,256.00
2022-10-25T05:59:15.670Z,296.00
2022-10-25T06:00:15.640Z,316.00
2022-10-25T06:01:15.691Z,344.00
2022-10-25T06:02:15.702Z,380.00
2022-10-25T06:03:15.609Z,412.00
2022-10-25T06:04:15.631Z,444.00
2022-10-25T06:05:15.606Z,468.00
2022-10-25T06:06:15.595Z,500.00
2022-10-25T06:07:15.571Z,512.00
2022-10-25T06:08:15.564Z,504.00
2022-10-25T06:09:15.598Z,440.00
2022-10-25T06:10:15.547Z,380.00
2022-10-25T06:11:15.548Z,332.00
2022-10-25T06:12:15.534Z,324.00
2022-10-25T06:13:15.523Z,352.00
2022-10-25T06:14:15.543Z,408.00
2022-10-25T06:15:15.501Z,472.00
2022-10-25T06:16:15.504Z,528.00
2022-10-25T06:17:15.483Z,596.00
2022-10-25T06:18:15.478Z,692.00
2022-10-25T06:19:15.501Z,756.00
2022-10-25T06:20:15.479Z,852.00
2022-10-25T06:21:15.466Z,932.00
2022-10-25T06:22:15.448Z,976.00
2022-10-25T06:23:15.438Z,1032.00
2022-10-25T06:24:15.461Z,1116.00
2022-10-25T06:25:15.443Z,1148.00
2022-10-25T06:26:15.413Z,1152.00
2022-10-25T06:27:15.430Z,1112.00
2022-10-25T06:28:15.397Z,1060.00
2022-10-25T06:29:15.420Z,960.00
2022-10-25T06:30:15.379Z,908.00
2022-10-25T06:31:15.372Z,876.00
2022-10-25T06:32:15.372Z,916.00
2022-10-25T06:33:15.361Z,912.00
2022-10-25T06:34:15.393Z,920.00
2022-10-25T06:35:15.336Z,936.00
2022-10-25T06:36:15.331Z,940.00
2022-10-25T06:37:15.330Z,888.00
2022-10-25T06:38:15.319Z,832.00
2022-10-25T06:39:15.343Z,824.00
2022-10-25T06:40:15.312Z,824.00
2022-10-25T06:41:15.288Z,832.00
2022-10-25T06:42:15.275Z,880.00
2022-10-25T06:43:15.263Z,908.00
2022-10-25T06:44:15.291Z,900.00
2022-10-25T06:45:15.257Z,872.00
2022-10-25T06:46:15.251Z,844.00
2022-10-25T06:47:17.658Z,848.00
2022-10-25T06:48:16.218Z,908.00
2022-10-25T06:49:15.254Z,940.00
2022-10-25T06:50:15.207Z,948.00
2022-10-25T06:51:15.199Z,1036.00
2022-10-25T06:52:15.193Z,1240.00
2022-10-25T06:53:15.189Z,1532.00
2022-10-25T06:54:15.208Z,1800.00
2022-10-25T06:55:15.157Z,2188.00
2022-10-25T06:56:15.330Z,2404.00
2022-10-25T06:57:15.144Z,2400.00
2022-10-25T06:58:15.141Z,2244.00
2022-10-25T06:59:15.128Z,2424.00
2022-10-25T07:00:15.164Z,2940.00
2022-10-25T07:01:15.237Z,3048.00
2022-10-25T07:02:15.242Z,2660.00
2022-10-25T07:03:15.092Z,2584.00
2022-10-25T07:04:15.129Z,2676.00
2022-10-25T07:05:15.078Z,2620.00
2022-10-25T07:06:15.064Z,2612.00
2022-10-25T07:07:15.065Z,2784.00
2022-10-25T07:08:15.057Z,2872.00
2022-10-25T07:09:15.071Z,2944.00
2022-10-25T07:10:15.029Z,2852.00
2022-10-25T07:11:15.024Z,2824.00
2022-10-25T07:12:15.021Z,3012.00
2022-10-25T07:13:15.010Z,3364.00
2022-10-25T07:14:14.996Z,3932.00
2022-10-25T07:15:15.070Z,4100.00
2022-10-25T07:16:14.984Z,3944.00
2022-10-25T07:17:14.974Z,3836.00
2022-10-25T07:18:14.962Z,3988.00
2022-10-25T07:19:14.987Z,3912.00
2022-10-25T07:20:14.942Z,3844.00
2022-10-25T07:21:14.940Z,3516.00
2022-10-25T07:22:14.931Z,3136.00
2022-10-25T07:23:14.928Z,2816.00
2022-10-25T07:24:14.920Z,2656.00
2022-10-25T07:25:14.954Z,2436.00
2022-10-25T07:26:14.899Z,2320.00
2022-10-25T07:27:14.888Z,2176.00
2022-10-25T07:28:14.878Z,2140.00
2022-10-25T07:29:15.090Z,2280.00
2022-10-25T07:30:14.889Z,2340.00
2022-10-25T07:31:14.851Z,2280.00
2022-10-25T07:32:14.836Z,2220.00
2022-10-25T07:33:14.830Z,2260.00
2022-10-25T07:34:14.822Z,2292.00
2022-10-25T07:35:14.854Z,2084.00
2022-10-25T07:36:14.822Z,1800.00
2022-10-25T07:37:14.799Z,1760.00
2022-10-25T07:38:14.787Z,1848.00
2022-10-25T07:39:14.778Z,2000.00
2022-10-25T07:40:14.808Z,2204.00
2022-10-25T07:41:14.766Z,2332.00
2022-10-25T07:42:14.750Z,2368.00
2022-10-25T07:43:14.737Z,2488.00
2022-10-25T07:44:17.588Z,2588.00
2022-10-25T07:45:18.685Z,2652.00
2022-10-25T07:46:15.718Z,2868.00
2022-10-25T07:47:14.708Z,3008.00
2022-10-25T07:48:14.705Z,3048.00
2022-10-25T07:49:14.694Z,3288.00
2022-10-25T07:50:14.710Z,3468.00
2022-10-25T07:51:14.691Z,3536.00
2022-10-25T07:52:14.673Z,3388.00
2022-10-25T07:53:14.660Z,3276.00
2022-10-25T07:54:14.654Z,3852.00
2022-10-25T07:55:14.685Z,4164.00
2022-10-25T07:56:17.464Z,3644.00
2022-10-25T07:57:15.628Z,3088.00
2022-10-25T07:58:14.614Z,2296.00
2022-10-25T07:59:14.611Z,2288.00
2022-10-25T08:00:14.640Z,2424.00
2022-10-25T08:01:14.614Z,2668.00
2022-10-25T08:02:14.577Z,2836.00
2022-10-25T08:03:14.686Z,2584.00
2022-10-25T08:04:14.561Z,2300.00
2022-10-25T08:05:14.562Z,2264.00
2022-10-25T08:06:14.579Z,2204.00
2022-10-25T08:07:14.546Z,2104.00
2022-10-25T08:08:14.532Z,2116.00
2022-10-25T08:09:33.121Z,2064.00
2022-10-25T08:10:15.555Z,2056.00
2022-10-25T08:11:14.519Z,2112.00
2022-10-25T08:12:16.212Z,2084.00
2022-10-25T08:13:14.483Z,1844.00
2022-10-25T08:14:14.543Z,1804.00
2022-10-25T08:15:14.485Z,1908.00
2022-10-25T08:16:14.504Z,2068.00
2022-10-25T08:17:14.454Z,2060.00
2022-10-25T08:18:14.448Z,1960.00
2022-10-25T08:19:14.443Z,1972.00
2022-10-25T08:20:14.433Z,2240.00
2022-10-25T08:21:14.451Z,2464.00
2022-10-25T08:22:14.435Z,2468.00
2022-10-25T08:23:14.421Z,2236.00
2022-10-25T08:24:14.484Z,2164.00
2022-10-25T08:25:14.393Z,2248.00
2022-10-25T08:26:14.417Z,2292.00
2022-10-25T08:27:14.376Z,2360.00
2022-10-25T08:28:14.368Z,2472.00
2022-10-25T08:29:14.349Z,2520.00
2022-10-25T08:30:14.346Z,2376.00
2022-10-25T08:31:14.431Z,2192.00
2022-10-25T08:32:14.330Z,2268.00
2022-10-25T08:33:14.325Z,2368.00
2022-10-25T08:34:14.326Z,2592.00
2022-10-25T08:35:14.316Z,2740.00
2022-10-25T08:36:14.333Z,2668.00
2022-10-25T08:37:14.297Z,2604.00
2022-10-25T08:38:14.282Z,2372.00
2022-10-25T08:39:14.270Z,2120.00
2022-10-25T08:40:14.260Z,2004.00
2022-10-25T08:41:14.283Z,2136.00
2022-10-25T08:42:14.245Z,2288.00
2022-10-25T08:43:14.243Z,2476.00
2022-10-25T08:44:14.229Z,2576.00
2022-10-25T08:45:14.215Z,2916.00
2022-10-25T08:46:14.237Z,3392.00
2022-10-25T08:47:14.201Z,3500.00
2022-10-25T08:48:14.199Z,3464.00
2022-10-25T08:49:14.181Z,3312.00
2022-10-25T08:50:14.174Z,3168.00
2022-10-25T08:51:14.208Z,3156.00
2022-10-25T08:52:16.718Z,3240.00
2022-10-25T08:53:15.152Z,3356.00
2022-10-25T08:54:14.142Z,3812.00
2022-10-25T08:55:14.131Z,4092.00
2022-10-25T08:56:17.746Z,3780.00
2022-10-25T08:57:16.293Z,3732.00
2022-10-25T08:58:15.117Z,3888.00
2022-10-25T08:59:14.100Z,4176.00
2022-10-25T09:00:14.091Z,4020.00
2022-10-25T09:01:14.229Z,3784.00
2022-10-25T09:02:14.150Z,3804.00
2022-10-25T09:03:15.387Z,5400.00
2022-10-25T09:04:15.071Z,4040.00
2022-10-25T09:05:14.047Z,3652.00
2022-10-25T09:06:14.067Z,3276.00
2022-10-25T09:07:14.063Z,3024.00
2022-10-25T09:08:14.019Z,3108.00
2022-10-25T09:09:14.015Z,3408.00
2022-10-25T09:10:14.011Z,3460.00
2022-10-25T09:11:14.030Z,3228.00
2022-10-25T09:12:13.998Z,3168.00
2022-10-25T09:13:14.000Z,3588.00
2022-10-25T09:14:13.977Z,4080.00
2022-10-25T09:15:13.968Z,4012.00
2022-10-25T09:16:13.994Z,3632.00
2022-10-25T09:17:13.956Z,3388.00
2022-10-25T09:18:13.942Z,3392.00
2022-10-25T09:19:13.998Z,3300.00
2022-10-25T09:20:13.926Z,3016.00
2022-10-25T09:21:17.519Z,2988.00
2022-10-25T09:22:14.917Z,3028.00
2022-10-25T09:23:13.930Z,2996.00
2022-10-25T09:24:13.889Z,2928.00
2022-10-25T09:25:13.897Z,2960.00
2022-10-25T09:26:13.909Z,2988.00
2022-10-25T09:27:13.877Z,2916.00
2022-10-25T09:28:13.864Z,2976.00
2022-10-25T09:29:13.854Z,3188.00
2022-10-25T09:30:13.845Z,3208.00
2022-10-25T09:31:13.864Z,3104.00
2022-10-25T09:32:13.826Z,3004.00
2022-10-25T09:33:13.915Z,2916.00
2022-10-25T09:34:13.815Z,2860.00
2022-10-25T09:35:13.804Z,2940.00
2022-10-25T09:36:13.814Z,3252.00
2022-10-25T09:37:13.795Z,3400.00
2022-10-25T09:38:13.774Z,3148.00
2022-10-25T09:39:15.951Z,2748.00
2022-10-25T09:40:14.756Z,2664.00
2022-10-25T09:41:13.778Z,2884.00
2022-10-25T09:42:13.739Z,2980.00
2022-10-25T09:43:13.735Z,3068.00
2022-10-25T09:44:13.721Z,3336.00
2022-10-25T09:45:13.712Z,3884.00
2022-10-25T09:46:13.730Z,4012.00
2022-10-25T09:47:13.701Z,3700.00
2022-10-25T09:48:13.686Z,3472.00
2022-10-25T09:49:13.678Z,3608.00
2022-10-25T09:50:13.667Z,3924.00
2022-10-25T09:51:13.694Z,3840.00
2022-10-25T09:52:13.650Z,3620.00
2022-10-25T09:53:14.258Z,3368.00
2022-10-25T09:54:13.651Z,3172.00
2022-10-25T09:55:13.627Z,3424.00
2022-10-25T09:56:13.646Z,3960.00
2022-10-25T09:57:13.635Z,4468.00
2022-10-25T09:58:13.604Z,4780.00
2022-10-25T09:59:13.600Z,4484.00
2022-10-25T10:00:13.591Z,3976.00
2022-10-25T10:01:13.690Z,3868.00
2022-10-25T10:02:13.769Z,4380.00
2022-10-25T10:03:13.568Z,5640.00
2022-10-25T10:04:13.558Z,6808.00
2022-10-25T10:05:13.542Z,6920.00
2022-10-25T10:06:13.537Z,6640.00
2022-10-25T10:07:13.563Z,6456.00
2022-10-25T10:08:13.525Z,5928.00
2022-10-25T10:09:13.516Z,5400.00
2022-10-25T10:10:13.544Z,5172.00
2022-10-25T10:11:13.506Z,4840.00
2022-10-25T10:12:13.516Z,4452.00
2022-10-25T10:13:13.489Z,4068.00
2022-10-25T10:14:13.472Z,4020.00
2022-10-25T10:15:13.467Z,3824.00
2022-10-25T10:16:13.458Z,3624.00
2022-10-25T10:17:13.483Z,3940.00
2022-10-25T10:18:13.445Z,5260.00
2022-10-25T10:19:13.431Z,8064.00
2022-10-25T10:20:13.422Z,13904.00
2022-10-25T10:21:13.410Z,19008.00
2022-10-25T10:22:13.457Z,17472.00
2022-10-25T10:23:13.395Z,68928.00
2022-10-25T10:24:13.392Z,60000.00
2022-10-25T10:25:13.381Z,47808.00
2022-10-25T10:26:13.367Z,24288.00
2022-10-25T10:27:13.395Z,16304.00
2022-10-25T10:28:13.350Z,17280.00
2022-10-25T10:29:17.560Z,17152.00
2022-10-25T10:30:14.364Z,93056.00
2022-10-25T10:31:13.326Z,28640.00
2022-10-25T10:32:13.346Z,59840.00
2022-10-25T10:33:13.314Z,27296.00
2022-10-25T10:34:13.301Z,21920.00
2022-10-25T10:35:13.295Z,39616.00
2022-10-25T10:36:13.286Z,102720.00
2022-10-25T10:37:13.312Z,37024.00
2022-10-25T10:38:13.268Z,28032.00
2022-10-25T10:39:13.258Z,57824.00
2022-10-25T10:40:13.361Z,104480.00
2022-10-25T10:41:13.241Z,36224.00
2022-10-25T10:42:15.158Z,28864.00
2022-10-25T10:43:14.228Z,18464.00
2022-10-25T10:44:13.235Z,11820.00
2022-10-25T10:45:13.209Z,10016.00
2022-10-25T10:46:13.204Z,9520.00
2022-10-25T10:47:14.217Z,14512.00
2022-10-25T10:48:13.190Z,11044.00
2022-10-25T10:49:13.178Z,13092.00
2022-10-25T10:50:13.241Z,16080.00
2022-10-25T10:51:25.506Z,18944.00
2022-10-25T10:52:15.210Z,12348.00
2022-10-25T10:53:13.146Z,12748.00
2022-10-25T10:54:13.209Z,11824.00
2022-10-25T10:55:13.122Z,11176.00
2022-10-25T10:56:13.128Z,12064.00
2022-10-25T10:57:13.136Z,12668.00
2022-10-25T10:58:13.098Z,9848.00
2022-10-25T10:59:13.089Z,9368.00
2022-10-25T11:00:13.105Z,9624.00
2022-10-25T11:01:13.176Z,9884.00
2022-10-25T11:02:13.312Z,10604.00
2022-10-25T11:03:13.057Z,11164.00
2022-10-25T11:04:13.055Z,10864.00
2022-10-25T11:05:13.040Z,9544.00
2022-10-25T11:06:13.037Z,10476.00
2022-10-25T11:07:13.057Z,13040.00
2022-10-25T11:08:13.013Z,17440.00
2022-10-25T11:09:13.061Z,11204.00
2022-10-25T11:10:12.995Z,10316.00
2022-10-25T11:11:12.989Z,10416.00
2022-10-25T11:12:13.015Z,9820.00
2022-10-25T11:13:13.043Z,8772.00
2022-10-25T11:14:12.959Z,8676.00
2022-10-25T11:15:12.954Z,9340.00
2022-10-25T11:16:12.943Z,9780.00
2022-10-25T11:17:12.941Z,10956.00
2022-10-25T11:18:12.964Z,11524.00
2022-10-25T11:19:12.922Z,12348.00
2022-10-25T11:20:12.913Z,12988.00
2022-10-25T11:21:12.895Z,11780.00
2022-10-25T11:22:12.922Z,10068.00
2022-10-25T11:23:12.902Z,9324.00
2022-10-25T11:24:12.875Z,9716.00
2022-10-25T11:25:12.865Z,51424.00
2022-10-25T11:26:12.860Z,13828.00
2022-10-25T11:27:12.863Z,17824.00
2022-10-25T11:28:12.877Z,15884.00
2022-10-25T11:29:12.907Z,16316.00
2022-10-25T11:30:12.825Z,34752.00
2022-10-25T11:31:12.823Z,15356.00
2022-10-25T11:32:12.812Z,59104.00
2022-10-25T11:33:12.838Z,23744.00
2022-10-25T11:34:12.792Z,23200.00
2022-10-25T11:35:12.782Z,19488.00
2022-10-25T11:36:12.775Z,19712.00
2022-10-25T11:37:12.766Z,38176.00
2022-10-25T11:38:12.785Z,31872.00
2022-10-25T11:39:12.748Z,17472.00
2022-10-25T11:40:12.750Z,14748.00
2022-10-25T11:41:12.733Z,13536.00
2022-10-25T11:42:12.749Z,12308.00
2022-10-25T11:43:12.745Z,11456.00
2022-10-25T11:44:12.709Z,10832.00
2022-10-25T11:45:12.765Z,9840.00
2022-10-25T11:46:12.677Z,8768.00
2022-10-25T11:47:13.682Z,7756.00
2022-10-25T11:48:12.705Z,6980.00
2022-10-25T11:49:12.658Z,6460.00
2022-10-25T11:50:12.653Z,6080.00
2022-10-25T11:51:12.660Z,5716.00
2022-10-25T11:52:12.634Z,5500.00
2022-10-25T11:53:12.659Z,5308.00
2022-10-25T11:54:12.614Z,5308.00
2022-10-25T11:55:12.613Z,5372.00
2022-10-25T11:56:12.609Z,5360.00
2022-10-25T11:57:12.607Z,5128.00
2022-10-25T11:58:12.614Z,4892.00
2022-10-25T11:59:12.580Z,4760.00
2022-10-25T12:00:12.661Z,4604.00
2022-10-25T12:01:12.730Z,4380.00
2022-10-25T12:02:12.556Z,4312.00
2022-10-25T12:03:12.618Z,4404.00
2022-10-25T12:04:12.551Z,4512.00
2022-10-25T12:05:12.524Z,4512.00
2022-10-25T12:06:12.524Z,4476.00
2022-10-25T12:07:12.516Z,4452.00
2022-10-25T12:08:12.537Z,4436.00
2022-10-25T12:09:12.493Z,4468.00
2022-10-25T12:10:12.487Z,4572.00
2022-10-25T12:11:15.003Z,4868.00
2022-10-25T12:12:13.483Z,5164.00
2022-10-25T12:13:12.503Z,5404.00
2022-10-25T12:14:12.459Z,5748.00
2022-10-25T12:15:12.458Z,5928.00
2022-10-25T12:16:12.442Z,5984.00
2022-10-25T12:17:12.502Z,6232.00
2022-10-25T12:18:12.459Z,6040.00
2022-10-25T12:19:12.418Z,5832.00
2022-10-25T12:20:12.416Z,5556.00
2022-10-25T12:21:12.402Z,5412.00
2022-10-25T12:22:12.396Z,5364.00
2022-10-25T12:23:12.413Z,5352.00
2022-10-25T12:24:12.370Z,5320.00
2022-10-25T12:25:12.373Z,5332.00
2022-10-25T12:26:12.358Z,5196.00
2022-10-25T12:27:12.354Z,5304.00
2022-10-25T12:28:12.375Z,4892.00
2022-10-25T12:29:12.345Z,4548.00
2022-10-25T12:30:12.361Z,4380.00
2022-10-25T12:31:12.313Z,4276.00
2022-10-25T12:32:12.314Z,4060.00
2022-10-25T12:33:12.400Z,4160.00
2022-10-25T12:34:12.309Z,4732.00
2022-10-25T12:35:12.284Z,5524.00
2022-10-25T12:36:12.274Z,6168.00
2022-10-25T12:37:12.272Z,7288.00